Terrebonne, Oregon
Current Conditions -  °F | °C
As of 9:56 AM on Friday 28 Nov 2014 (Local Time) from KRDM Reporting Station
Overcast Overcast  
Wind Chill: 37°   Ceiling: 7000
Heat Index: 45°   Visibility: 10mi
Dew Point: 37°   Wind: 18mph
Humidity: 74%   Direction: 190°S
Pressure: 29.72"   Gusts: 32mph
Location:  44.35°N, 121.18°W
Report Text: KRDM 281756Z 19016G28KT 10SM BKN070 OVC095 07/03 A2972 RMK AO2 PK WND 19028/1747 RAE34 SLP062 P0001 60002 T00720028 10106 20072 56008
Loading
Personal Weather Stations






























Interactive Weather Map New forecast layout! Learn more

10-Day Weather Forecast

Advertisements
Track Severe Weather on mobile